createdAt,value
2022-12-06T00:00:40.135Z,-6.98
2022-12-06T00:03:27.785Z,-6.94
2022-12-06T00:06:18.739Z,-6.90
2022-12-06T00:09:06.670Z,-6.89
2022-12-06T00:11:55.010Z,-6.90
2022-12-06T00:14:42.699Z,-6.94
2022-12-06T00:17:30.305Z,-6.97
2022-12-06T00:20:18.070Z,-7.03
2022-12-06T00:23:05.649Z,-7.07
2022-12-06T00:25:53.278Z,-7.11
2022-12-06T00:28:41.946Z,-7.16
2022-12-06T00:31:31.488Z,-7.21
2022-12-06T00:34:19.210Z,-7.25
2022-12-06T00:37:06.798Z,-7.26
2022-12-06T00:39:54.416Z,-7.30
2022-12-06T00:42:42.037Z,-7.33
2022-12-06T00:45:29.613Z,-7.35
2022-12-06T00:48:17.281Z,-7.40
2022-12-06T00:51:05.153Z,-7.46
2022-12-06T00:53:52.851Z,-7.51
2022-12-06T00:56:40.454Z,-7.51
2022-12-06T00:59:28.010Z,-7.50
2022-12-06T01:02:15.538Z,-7.50
2022-12-06T01:05:03.455Z,-7.49
2022-12-06T01:07:51.192Z,-7.48
2022-12-06T01:10:39.258Z,-7.45
2022-12-06T01:13:27.024Z,-7.48
2022-12-06T01:16:23.215Z,-7.47
2022-12-06T01:19:12.770Z,-7.45
2022-12-06T01:22:00.352Z,-7.44
2022-12-06T01:24:48.268Z,-7.42
2022-12-06T01:27:35.903Z,-7.39
2022-12-06T01:30:23.494Z,-7.35
2022-12-06T01:33:11.168Z,-7.31
2022-12-06T01:35:58.722Z,-7.28
2022-12-06T01:38:50.776Z,-7.24
2022-12-06T01:41:39.396Z,-7.22
2022-12-06T01:44:41.135Z,-7.22
2022-12-06T01:47:28.686Z,-7.23
2022-12-06T01:50:24.383Z,-7.23
2022-12-06T01:53:13.074Z,-7.30
2022-12-06T01:56:01.380Z,-7.28
2022-12-06T01:58:52.699Z,-7.29
2022-12-06T02:01:40.933Z,-7.29
2022-12-06T02:04:30.931Z,-7.30
2022-12-06T02:07:20.611Z,-7.33
2022-12-06T02:10:08.697Z,-7.38
2022-12-06T02:12:58.887Z,-7.37
2022-12-06T02:16:24.305Z,-7.33
2022-12-06T02:19:49.344Z,-7.27
2022-12-06T02:23:05.114Z,-7.23
2022-12-06T02:26:21.430Z,-7.19
2022-12-06T02:29:17.731Z,-7.14
2022-12-06T02:32:34.635Z,-7.13
2022-12-06T02:35:25.139Z,-7.13
2022-12-06T02:38:25.471Z,-7.12
2022-12-06T02:41:38.148Z,-7.13
2022-12-06T02:44:42.916Z,-7.15
2022-12-06T02:47:35.262Z,-7.18
2022-12-06T02:50:29.803Z,-7.18
2022-12-06T02:53:20.878Z,-7.20
2022-12-06T02:56:08.654Z,-7.20
2022-12-06T02:58:56.436Z,-7.19
2022-12-06T03:01:51.477Z,-7.17
2022-12-06T03:04:51.223Z,-7.18
2022-12-06T03:07:45.477Z,-7.16
2022-12-06T03:10:46.873Z,-7.14
2022-12-06T03:13:55.122Z,-7.14
2022-12-06T03:17:03.786Z,-7.17
2022-12-06T03:20:01.455Z,-7.17
2022-12-06T03:22:58.696Z,-7.14
2022-12-06T03:25:48.547Z,-7.12
2022-12-06T03:28:38.995Z,-7.10
2022-12-06T03:31:31.705Z,-7.09
2022-12-06T03:34:24.634Z,-7.10
2022-12-06T03:37:16.519Z,-7.12
2022-12-06T03:40:14.824Z,-7.17
2022-12-06T03:43:05.984Z,-7.20
2022-12-06T03:46:08.683Z,-7.21
2022-12-06T03:49:01.614Z,-7.25
2022-12-06T03:51:49.645Z,-7.37
2022-12-06T03:54:41.457Z,-7.41
2022-12-06T03:57:29.569Z,-7.52
2022-12-06T04:00:20.719Z,-7.63
2022-12-06T04:03:08.628Z,-7.71
2022-12-06T04:05:56.261Z,-7.80
2022-12-06T04:08:43.864Z,-7.89
2022-12-06T04:11:31.590Z,-7.97
2022-12-06T04:14:19.166Z,-7.99
2022-12-06T04:17:26.872Z,-8.03
2022-12-06T04:20:14.503Z,-8.09
2022-12-06T04:23:04.998Z,-8.12
2022-12-06T04:25:52.687Z,-8.17
2022-12-06T04:28:58.714Z,-8.15
2022-12-06T04:32:04.599Z,-8.19
2022-12-06T04:35:10.805Z,-8.25
2022-12-06T04:38:17.960Z,-8.29
2022-12-06T04:41:05.678Z,-8.30
2022-12-06T04:43:53.525Z,-8.32
2022-12-06T04:46:41.311Z,-8.35
2022-12-06T04:49:29.201Z,-8.37
2022-12-06T04:52:17.752Z,-8.37
2022-12-06T04:55:05.901Z,-8.34
2022-12-06T04:57:53.630Z,-8.34
2022-12-06T05:00:44.813Z,-8.28
2022-12-06T05:03:32.620Z,-8.23
2022-12-06T05:06:20.402Z,-8.16
2022-12-06T05:09:08.094Z,-8.11
2022-12-06T05:11:55.844Z,-8.06
2022-12-06T05:14:43.466Z,-8.02
2022-12-06T05:17:31.167Z,-7.98
2022-12-06T05:20:18.906Z,-7.90
2022-12-06T05:23:06.582Z,-7.85
2022-12-06T05:26:01.543Z,-7.76
2022-12-06T05:28:49.383Z,-7.74
2022-12-06T05:31:37.152Z,-7.70
2022-12-06T05:34:25.181Z,-7.63
2022-12-06T05:37:15.514Z,-7.60
2022-12-06T05:40:03.862Z,-7.58
2022-12-06T05:42:52.102Z,-7.54
2022-12-06T05:45:40.344Z,-7.46
2022-12-06T05:48:28.614Z,-7.40
2022-12-06T05:51:16.491Z,-7.34
2022-12-06T05:54:06.815Z,-7.28
2022-12-06T05:56:55.839Z,-7.21
2022-12-06T05:59:43.704Z,-7.16
2022-12-06T06:02:31.538Z,-7.08
2022-12-06T06:05:19.557Z,-7.01
2022-12-06T06:08:07.336Z,-6.95
2022-12-06T06:10:55.736Z,-6.82
2022-12-06T06:13:43.392Z,-6.77
2022-12-06T06:16:32.908Z,-6.72
2022-12-06T06:19:23.863Z,-6.78
2022-12-06T06:22:11.536Z,-6.74
2022-12-06T06:24:59.201Z,-6.68
2022-12-06T06:27:46.857Z,-6.61
2022-12-06T06:30:34.496Z,-6.55
2022-12-06T06:33:22.238Z,-6.44
2022-12-06T06:36:10.399Z,-6.34
2022-12-06T06:38:59.138Z,-6.23
2022-12-06T06:41:46.784Z,-6.22
2022-12-06T06:44:34.424Z,-6.20
2022-12-06T06:47:22.906Z,-6.13
2022-12-06T06:50:11.094Z,-6.07
2022-12-06T06:52:58.764Z,-5.96
2022-12-06T06:55:47.216Z,-5.96
2022-12-06T06:58:38.181Z,-6.02
2022-12-06T07:01:27.501Z,-5.99
2022-12-06T07:04:15.234Z,-5.88
2022-12-06T07:07:02.814Z,-5.77
2022-12-06T07:09:50.538Z,-5.77
2022-12-06T07:12:38.287Z,-5.83
2022-12-06T07:15:26.030Z,-5.88
2022-12-06T07:18:13.700Z,-5.91
2022-12-06T07:21:04.485Z,-5.89
2022-12-06T07:23:52.488Z,-5.80
2022-12-06T07:26:41.036Z,-5.75
2022-12-06T07:29:28.767Z,-5.65
2022-12-06T07:32:16.412Z,-5.69
2022-12-06T07:35:05.232Z,-5.63
2022-12-06T07:37:53.163Z,-5.60
2022-12-06T07:41:03.539Z,-5.50
2022-12-06T07:44:07.050Z,-5.44
2022-12-06T07:46:55.336Z,-5.44
2022-12-06T07:49:43.067Z,-5.49
2022-12-06T07:52:35.379Z,-5.45
2022-12-06T07:55:23.022Z,-5.53
2022-12-06T07:58:10.841Z,-5.48
2022-12-06T08:00:58.581Z,-5.39
2022-12-06T08:03:46.250Z,-5.31
2022-12-06T08:06:34.869Z,-5.21
2022-12-06T08:09:22.651Z,-5.18
2022-12-06T08:12:10.697Z,-5.18
2022-12-06T08:14:59.951Z,-5.16
2022-12-06T08:17:47.939Z,-5.13
2022-12-06T08:20:35.664Z,-5.16
2022-12-06T08:23:24.305Z,-5.16
2022-12-06T08:26:16.576Z,-5.19
2022-12-06T08:29:04.866Z,-5.31
2022-12-06T08:31:52.525Z,-5.29
2022-12-06T08:34:40.299Z,-5.30
2022-12-06T08:37:27.901Z,-5.31
2022-12-06T08:40:15.712Z,-5.32
2022-12-06T08:43:03.438Z,-5.29
2022-12-06T08:45:52.357Z,-5.31
2022-12-06T08:48:43.158Z,-5.36
2022-12-06T08:51:32.990Z,-5.35
2022-12-06T08:54:23.450Z,-5.34
2022-12-06T08:57:11.154Z,-5.32
2022-12-06T08:59:59.375Z,-5.32
2022-12-06T09:02:47.516Z,-5.28
2022-12-06T09:05:35.761Z,-5.27
2022-12-06T09:08:23.510Z,-5.24
2022-12-06T09:11:11.388Z,-5.27
2022-12-06T09:13:59.108Z,-5.32
2022-12-06T09:16:46.812Z,-5.33
2022-12-06T09:19:35.077Z,-5.29
2022-12-06T09:22:22.706Z,-5.24
2022-12-06T09:25:10.673Z,-5.18
2022-12-06T09:27:59.698Z,-5.06
2022-12-06T09:30:47.447Z,-4.91
2022-12-06T09:33:36.026Z,-4.81
2022-12-06T09:36:26.467Z,-4.68
2022-12-06T09:39:17.915Z,-4.54
2022-12-06T09:42:14.494Z,-4.45
2022-12-06T09:45:10.413Z,-4.45
2022-12-06T09:48:45.680Z,-4.26
2022-12-06T09:52:13.697Z,-4.06
2022-12-06T09:55:27.343Z,-3.91
2022-12-06T09:58:17.904Z,-3.18
2022-12-06T10:01:24.297Z,-1.92
2022-12-06T10:04:24.176Z,-1.11
2022-12-06T10:07:35.467Z,-1.14
2022-12-06T10:10:31.953Z,-0.76
2022-12-06T10:13:28.133Z,0.33
2022-12-06T10:16:22.214Z,0.57
